עמוד ראשי
METAR-TAF:

METAR-TAF

שדות תעופה :

אוסקה, יפן

קו רוחב: 34-47N, קו אורך: 135-27E, גובה: 12מטר

תצפית מזג אוויר נוכחית

הדו"ח נערך לפני 37דקות, בשעה 11:00 UTC
רוח 3קשר מכיוון דרום, משתנה בין מזרח ו דרום-מערב
טמפרטורת 27 צלסיוס
לחות 84%
לחץ 1013 hPa
ראות 10 קילומטר או יותר
מעט עננים בגובה 1500רגל
עננים בינוניים בגובה 3000רגל
ממטרי גשם קלים

METAR: RJOO 141100Z 18003KT 100V230 9999 -SHRA FEW015 BKN030 27/24 Q1013 RMK 1CU015 7CU030 A2993

זמן: 20:37 (11:37 UTC)

תחזית

הדו"ח נערך לפני 6 שעות ו 31דקות, בשעה 05:06 UTC
תחזית בתוקף מ 14 ב 06 UTC עד 15 ב 12 UTC
רוח 7קשר מכיוון מערב/דרום-מערב
ראות: 8000מטר
מעט עננים בגובה 800רגל
עננים פזורים בגובה 1500רגל
עננים בינוניים בגובה 2500רגל
ממטרי גשם קלים
יעשה מ
14 ב 12 UTC עד 14 ב 14 UTC
רוח 4קשר מכיוון מזרח
זמנית מ -
14 ב 13 UTC עד 14 ב 18 UTC
ראות: 4000מטר
ממטרי גשם, אד,

TAF: RJOO 140506Z 1406/1512 25007KT 8000 -SHRA FEW008 SCT015 BKN025 BECMG 1412/1414 08004KT TEMPO 1413/1418 4000 SHRA BR

תצפיות ותחזיות מזג אוויר לגבי יותר מ- 4,000 שדות תעופה ברחבי העולם. דוחות METAR ו- TAF.

התחנות הזמינות מסומנות בנקודות צהובות ואדומות על גבי המפה.

העבר את העכבר לנקודה הצבעונית על מנת לראות את שם התחנה.

לאחר מכן, לחץ כדי לראות את תוכן ואת תחזיות מזג האוויר.

כדי לשנות את המפה: לחץ על הכפתורים הירוקים עם הפלוס השחור כדי להתקרב; על הכפתור הירוק עם המקף כדי להתרחק; או בחיצים הירוקים למפות סמוכות.


METAR-TAF: